Time;durP1;ratioP1;P1;durP2;ratioP2;P2;SDS_P1;SDS_P2;PMS_P1;PMS_P2;Temp;Humidity;BMP_temperature;BMP_pressure;BME280_temperature;BME280_humidity;BME280_pressure;Samples;Min_cycle;Max_cycle;Signal;HPM_P1;HPM_P2
2022/10/25 00:02:22;;;;;;;25.23;19.45;;;13.50;99.90;;;;;;4937249;29;20044;-89
2022/10/25 00:04:48;;;;;;;24.55;18.45;;;13.40;99.90;;;;;;4909534;29;20049;-89
2022/10/25 00:07:14;;;;;;;27.27;19.75;;;13.40;99.90;;;;;;4882264;29;20120;-91
2022/10/25 00:09:40;;;;;;;26.25;20.27;;;13.40;99.90;;;;;;4882007;29;20036;-90
2022/10/25 00:12:06;;;;;;;25.00;19.67;;;13.40;99.90;;;;;;4881646;29;20051;-88
2022/10/25 00:14:32;;;;;;;26.67;20.15;;;13.30;99.90;;;;;;4899582;29;20055;-89
2022/10/25 00:16:57;;;;;;;26.05;20.23;;;13.30;99.90;;;;;;4910011;29;20438;-91
2022/10/25 00:19:23;;;;;;;27.60;20.73;;;13.30;99.90;;;;;;4918625;29;20044;-89
2022/10/25 00:21:48;;;;;;;28.00;21.75;;;13.30;99.90;;;;;;4884813;29;20695;-89
2022/10/25 00:24:14;;;;;;;29.75;22.38;;;13.30;99.90;;;;;;4917566;29;20036;-89
2022/10/25 00:26:40;;;;;;;26.10;20.60;;;13.30;99.90;;;;;;4900271;29;20123;-90
2022/10/25 00:29:07;;;;;;;28.30;21.38;;;13.20;99.90;;;;;;4897433;29;20067;-89
2022/10/25 00:31:33;;;;;;;25.55;20.30;;;13.30;99.90;;;;;;4917217;29;20810;-91
2022/10/25 00:33:58;;;;;;;25.92;20.73;;;13.30;99.90;;;;;;4900017;29;20048;-91
2022/10/25 00:36:25;;;;;;;29.10;20.70;;;13.30;99.90;;;;;;4916541;29;20051;-90
2022/10/25 00:38:52;;;;;;;26.70;19.85;;;13.30;99.90;;;;;;4901423;29;20052;-90
2022/10/25 00:41:20;;;;;;;25.88;19.73;;;13.30;99.90;;;;;;4900771;29;20079;-90
2022/10/25 00:43:50;;;;;;;27.77;19.92;;;13.20;99.90;;;;;;4896907;29;20040;-89
2022/10/25 00:46:19;;;;;;;27.23;18.90;;;13.30;99.90;;;;;;4899706;29;20068;-89
2022/10/25 00:49:00;;;;;;;25.85;18.50;;;13.30;99.90;;;;;;4905416;29;20131;-89
2022/10/25 00:51:37;;;;;;;25.02;18.65;;;13.30;99.90;;;;;;4902085;29;20047;-89
2022/10/25 00:54:04;;;;;;;24.63;19.15;;;13.30;99.90;;;;;;4900085;29;20536;-90
2022/10/25 00:56:35;;;;;;;25.00;18.95;;;13.30;99.90;;;;;;4898192;29;20040;-90
2022/10/25 00:59:02;;;;;;;;;;;13.30;99.90;;;;;;4913169;29;20079;-90
2022/10/25 01:01:28;;;;;;;24.70;18.20;;;13.20;99.90;;;;;;4918304;29;19923;-89
2022/10/25 01:03:57;;;;;;;24.73;17.42;;;13.20;99.90;;;;;;4917957;29;20060;-89
2022/10/25 01:06:35;;;;;;;22.00;17.20;;;13.30;99.90;;;;;;4884555;29;20290;-89
2022/10/25 01:09:01;;;;;;;24.05;17.27;;;13.30;99.90;;;;;;4899309;29;20123;-88
2022/10/25 01:11:27;;;;;;;25.20;17.83;;;13.30;99.90;;;;;;4882094;29;20040;-90
2022/10/25 01:13:54;;;;;;;23.58;17.20;;;13.30;99.90;;;;;;4899284;29;20438;-89
2022/10/25 01:16:32;;;;;;;23.00;17.70;;;13.40;99.90;;;;;;4898992;29;20115;-89
2022/10/25 01:19:02;;;;;;;21.45;16.73;;;13.40;99.90;;;;;;4899714;29;20047;-89
2022/10/25 01:21:49;;;;;;;23.70;17.40;;;13.40;99.90;;;;;;4917447;29;20040;-90
2022/10/25 01:24:52;;;;;;;20.80;16.48;;;13.30;99.90;;;;;;4899525;29;20044;-90
2022/10/25 01:27:23;;;;;;;23.92;17.08;;;13.30;99.90;;;;;;4899297;29;20493;-91
2022/10/25 01:30:01;;;;;;;24.10;17.10;;;13.30;99.90;;;;;;4915337;29;20581;-91
2022/10/25 01:32:52;;;;;;;24.70;17.83;;;13.30;99.90;;;;;;4882957;29;20040;-89
2022/10/25 01:35:41;;;;;;;21.13;16.73;;;13.30;99.90;;;;;;4899447;29;20050;-91
2022/10/25 01:38:19;;;;;;;22.33;15.85;;;13.20;99.90;;;;;;4916423;29;20044;-89
2022/10/25 01:41:08;;;;;;;21.67;16.15;;;13.30;99.90;;;;;;4899654;29;20051;-89
2022/10/25 01:43:52;;;;;;;21.83;15.90;;;13.20;99.90;;;;;;4918980;29;20075;-88
2022/10/25 01:46:35;;;;;;;23.45;15.85;;;13.20;99.90;;;;;;4916737;29;20051;-88
2022/10/25 01:49:07;;;;;;;21.77;15.55;;;13.30;99.90;;;;;;4914772;29;20048;-90
2022/10/25 01:51:37;;;;;;;20.77;15.02;;;13.30;99.90;;;;;;4922927;29;20409;-89
2022/10/25 01:54:16;;;;;;;20.85;15.85;;;13.30;99.90;;;;;;4912975;29;20115;-88
2022/10/25 01:57:05;;;;;;;19.77;14.88;;;13.30;99.90;;;;;;4923118;29;20044;-88
2022/10/25 01:59:59;;;;;;;20.55;14.07;;;13.30;99.90;;;;;;4911403;29;20401;-88
2022/10/25 02:02:33;;;;;;;20.65;14.63;;;13.30;99.90;;;;;;4927505;29;20107;-89
2022/10/25 02:05:24;;;;;;;19.30;14.07;;;13.40;99.90;;;;;;4932600;29;20024;-87
2022/10/25 02:08:03;;;;;;;20.83;14.87;;;13.40;99.90;;;;;;4918371;29;20036;-89
2022/10/25 02:10:39;;;;;;;19.58;14.02;;;13.40;99.90;;;;;;4918603;29;20298;-89
2022/10/25 02:13:14;;;;;;;20.60;13.60;;;13.40;99.90;;;;;;4930862;29;20086;-90
2022/10/25 02:15:46;;;;;;;21.77;13.63;;;13.40;99.90;;;;;;4916718;29;20080;-90
2022/10/25 02:18:16;;;;;;;20.35;13.77;;;13.40;99.90;;;;;;4898991;29;20054;-89
2022/10/25 02:20:44;;;;;;;20.35;14.07;;;13.40;99.90;;;;;;4914176;29;20047;-88
2022/10/25 02:23:10;;;;;;;19.60;13.75;;;13.40;99.90;;;;;;4899857;29;20119;-90
2022/10/25 02:25:38;;;;;;;17.88;12.95;;;13.40;99.90;;;;;;4906987;29;20448;-90
2022/10/25 02:28:07;;;;;;;19.42;13.63;;;13.40;99.90;;;;;;4934604;29;20136;-89
2022/10/25 02:30:35;;;;;;;18.83;12.68;;;13.50;99.90;;;;;;4925425;29;20589;-90
2022/10/25 02:33:01;;;;;;;19.35;13.23;;;13.50;99.90;;;;;;4931024;29;20047;-90
2022/10/25 02:35:27;;;;;;;21.00;14.20;;;13.40;99.90;;;;;;4934063;29;20050;-88
2022/10/25 02:37:52;;;;;;;18.05;13.30;;;13.40;99.90;;;;;;4908746;29;20052;-90
2022/10/25 02:40:18;;;;;;;20.20;13.55;;;13.40;99.90;;;;;;4898260;29;20051;-88
2022/10/25 02:42:44;;;;;;;20.13;14.60;;;13.40;99.90;;;;;;4898694;29;20118;-89
2022/10/25 02:45:10;;;;;;;20.77;14.57;;;13.50;99.90;;;;;;4901426;29;20052;-89
2022/10/25 02:47:36;;;;;;;23.58;14.50;;;13.50;99.90;;;;;;4915475;29;20130;-89
2022/10/25 02:50:02;;;;;;;18.23;13.88;;;13.50;99.90;;;;;;4897634;29;20056;-91
2022/10/25 02:52:28;;;;;;;20.77;14.13;;;13.50;99.90;;;;;;4915263;29;20059;-90
2022/10/25 02:54:53;;;;;;;21.67;14.65;;;13.50;99.90;;;;;;4922186;29;20489;-89
2022/10/25 02:57:19;;;;;;;23.77;14.80;;;13.50;99.90;;;;;;4898796;29;20485;-90
2022/10/25 02:59:44;;;;;;;24.55;15.07;;;13.60;99.90;;;;;;4929869;29;20044;-90
2022/10/25 03:02:10;;;;;;;20.70;14.95;;;13.50;99.90;;;;;;4933651;29;20055;-88
2022/10/25 03:04:36;;;;;;;21.73;14.75;;;13.60;99.90;;;;;;4888686;29;20109;-90
2022/10/25 03:07:01;;;;;;;23.58;15.27;;;13.60;99.90;;;;;;4883162;29;20127;-89
2022/10/25 03:09:27;;;;;;;20.92;15.50;;;13.60;99.90;;;;;;4901468;29;20040;-91
2022/10/25 03:11:52;;;;;;;26.00;15.18;;;13.60;99.90;;;;;;4907330;29;20079;-89
2022/10/25 03:14:18;;;;;;;20.98;14.88;;;13.60;99.90;;;;;;4916535;29;20071;-90
2022/10/25 03:16:44;;;;;;;20.45;15.40;;;13.70;99.90;;;;;;4925534;29;20055;-89
2022/10/25 03:19:09;;;;;;;23.48;15.25;;;13.70;99.90;;;;;;4903157;29;20044;-87
2022/10/25 03:21:35;;;;;;;21.27;14.65;;;13.70;99.90;;;;;;4882417;29;20048;-88
2022/10/25 03:24:00;;;;;;;20.95;15.15;;;13.70;99.90;;;;;;4889611;29;20032;-90
2022/10/25 03:26:26;;;;;;;20.70;15.32;;;13.70;99.90;;;;;;4917210;29;20089;-89
2022/10/25 03:28:52;;;;;;;20.40;14.75;;;13.70;99.90;;;;;;4933349;29;20051;-89
2022/10/25 03:31:19;;;;;;;23.20;14.45;;;13.70;99.90;;;;;;4908122;29;20036;-89
2022/10/25 03:33:45;;;;;;;19.85;14.57;;;13.70;99.90;;;;;;4906079;29;20111;-90
2022/10/25 03:36:11;;;;;;;21.75;14.18;;;13.70;99.90;;;;;;4902792;29;20040;-91
2022/10/25 03:38:37;;;;;;;23.45;15.40;;;13.70;99.90;;;;;;4905572;29;20146;-89
2022/10/25 03:41:03;;;;;;;21.23;15.05;;;13.70;99.90;;;;;;4934468;29;20040;-89
2022/10/25 03:43:29;;;;;;;21.02;14.60;;;13.70;99.90;;;;;;4918011;29;20036;-89
2022/10/25 03:45:54;;;;;;;22.33;15.80;;;13.70;99.90;;;;;;4886001;29;20047;-91
2022/10/25 03:48:20;;;;;;;24.05;15.48;;;13.60;99.90;;;;;;4899934;29;20032;-90
2022/10/25 03:50:45;;;;;;;21.48;15.18;;;13.50;99.90;;;;;;4896369;29;20509;-90
2022/10/25 03:53:11;;;;;;;20.40;15.27;;;13.50;99.90;;;;;;4881921;29;20060;-89
2022/10/25 03:55:37;;;;;;;23.48;14.90;;;13.50;99.90;;;;;;4903832;29;20106;-89
2022/10/25 03:58:02;;;;;;;21.50;15.25;;;13.50;99.90;;;;;;4920518;29;20036;-90
2022/10/25 04:00:28;;;;;;;22.35;14.63;;;13.50;99.90;;;;;;4931664;28;20047;-89
2022/10/25 04:02:56;;;;;;;21.83;15.32;;;13.50;99.90;;;;;;4940889;29;20067;-90
2022/10/25 04:05:21;;;;;;;20.70;15.20;;;13.50;99.90;;;;;;4905278;29;20508;-90
2022/10/25 04:07:47;;;;;;;20.27;15.40;;;13.50;99.90;;;;;;4884871;29;20040;-90
2022/10/25 04:10:13;;;;;;;21.70;15.80;;;13.50;99.90;;;;;;4900566;29;20040;-88
2022/10/25 04:12:39;;;;;;;26.35;15.40;;;13.50;99.90;;;;;;4917268;29;20044;-89
2022/10/25 04:15:05;;;;;;;24.23;15.63;;;13.50;99.90;;;;;;4900089;29;20104;-89
2022/10/25 04:17:30;;;;;;;21.83;15.45;;;13.50;99.90;;;;;;4899156;29;20044;-89
2022/10/25 04:19:56;;;;;;;27.90;16.02;;;13.60;99.90;;;;;;4914956;29;20040;-89
2022/10/25 04:22:21;;;;;;;27.38;17.25;;;13.50;99.90;;;;;;4884895;29;20138;-90
2022/10/25 04:24:47;;;;;;;23.65;16.25;;;13.50;99.90;;;;;;4916719;29;20040;-89
2022/10/25 04:27:12;;;;;;;24.30;17.08;;;13.50;99.90;;;;;;4916974;29;20054;-89
2022/10/25 04:29:38;;;;;;;25.75;15.75;;;13.50;99.90;;;;;;4899802;29;20083;-88
2022/10/25 04:32:04;;;;;;;29.48;16.98;;;13.60;99.90;;;;;;4897510;29;20047;-89
2022/10/25 04:34:30;;;;;;;24.45;16.58;;;13.60;99.90;;;;;;4898603;29;20044;-91
2022/10/25 04:36:55;;;;;;;27.42;16.92;;;13.60;99.90;;;;;;4916432;29;20111;-89
2022/10/25 04:39:21;;;;;;;28.15;16.23;;;13.60;99.90;;;;;;4899363;29;20043;-88
2022/10/25 04:41:47;;;;;;;25.48;16.38;;;13.60;99.90;;;;;;4916782;29;20370;-89
2022/10/25 04:44:12;;;;;;;26.50;16.35;;;13.60;99.90;;;;;;4883546;29;20044;-89
2022/10/25 04:46:38;;;;;;;26.05;16.35;;;13.60;99.90;;;;;;4899153;29;20054;-89
2022/10/25 04:49:03;;;;;;;25.27;15.98;;;13.60;99.90;;;;;;4907204;29;20040;-88
2022/10/25 04:51:29;;;;;;;25.77;16.40;;;13.70;99.90;;;;;;4910807;29;20111;-89
2022/10/25 04:53:55;;;;;;;26.40;16.02;;;13.70;99.90;;;;;;4899443;29;20040;-88
2022/10/25 04:56:21;;;;;;;23.02;15.23;;;13.70;99.90;;;;;;4916416;29;20043;-88
2022/10/25 04:58:47;;;;;;;26.52;15.85;;;13.70;99.90;;;;;;4902788;29;20065;-88
2022/10/25 05:01:15;;;;;;;21.73;14.95;;;13.70;99.90;;;;;;4898251;29;20189;-89
2022/10/25 05:03:40;;;;;;;24.02;14.27;;;13.70;99.90;;;;;;4898227;29;20055;-89
2022/10/25 05:06:11;;;;;;;23.02;14.80;;;13.60;99.90;;;;;;4899020;29;20131;-91
2022/10/25 05:08:42;;;;;;;23.35;14.95;;;13.60;99.90;;;;;;4913264;29;20144;-89
2022/10/25 05:11:08;;;;;;;24.08;14.98;;;13.60;99.90;;;;;;4905541;29;20036;-89
2022/10/25 05:13:35;;;;;;;21.60;14.48;;;13.50;99.90;;;;;;4899382;29;20075;-90
2022/10/25 05:16:01;;;;;;;24.65;14.45;;;13.50;99.90;;;;;;4914066;29;20037;-89
2022/10/25 05:18:28;;;;;;;21.20;14.38;;;13.40;99.90;;;;;;4905277;29;20071;-89
2022/10/25 05:20:56;;;;;;;22.70;14.35;;;13.40;99.90;;;;;;4864919;29;20056;-90
2022/10/25 05:23:22;;;;;;;21.35;13.90;;;13.40;99.90;;;;;;4880524;29;20051;-90
2022/10/25 05:25:58;;;;;;;20.90;13.55;;;13.30;99.90;;;;;;4907372;29;20393;-90
2022/10/25 05:28:24;;;;;;;24.10;13.88;;;13.20;99.90;;;;;;4910547;29;20032;-90
2022/10/25 05:30:50;;;;;;;22.98;13.75;;;13.20;99.90;;;;;;4893090;29;20077;-89
2022/10/25 05:33:15;;;;;;;20.35;13.80;;;13.20;99.90;;;;;;4912343;29;20134;-90
2022/10/25 05:35:41;;;;;;;23.10;13.90;;;13.20;99.90;;;;;;4897357;29;20063;-89
2022/10/25 05:38:06;;;;;;;21.90;13.73;;;13.20;99.90;;;;;;4880451;29;20033;-91
2022/10/25 05:40:32;;;;;;;18.90;12.85;;;13.10;99.90;;;;;;4896395;29;20081;-90
2022/10/25 05:42:58;;;;;;;22.23;14.30;;;13.10;99.90;;;;;;4914529;29;20048;-89
2022/10/25 05:45:24;;;;;;;22.52;14.43;;;13.20;99.90;;;;;;4898378;29;20068;-90
2022/10/25 05:47:50;;;;;;;23.48;14.13;;;13.20;99.90;;;;;;4898315;29;20047;-91
2022/10/25 05:50:15;;;;;;;21.85;13.48;;;13.20;99.90;;;;;;4879201;29;20176;-90
2022/10/25 05:52:44;;;;;;;21.90;13.82;;;13.20;99.90;;;;;;4880620;29;20513;-88
2022/10/25 05:55:10;;;;;;;22.45;12.85;;;13.20;99.90;;;;;;4911879;29;20084;-91
2022/10/25 05:57:35;;;;;;;20.33;13.25;;;13.20;99.90;;;;;;4883165;29;20032;-87
2022/10/25 06:00:01;;;;;;;22.27;13.40;;;13.10;99.90;;;;;;4896934;29;20043;-87
2022/10/25 06:02:27;;;;;;;22.08;12.48;;;13.10;99.90;;;;;;4888266;29;20059;-88
2022/10/25 06:04:52;;;;;;;21.77;13.48;;;13.10;99.90;;;;;;4913199;29;20349;-89
2022/10/25 06:07:18;;;;;;;22.40;13.50;;;13.10;99.90;;;;;;4922473;29;20036;-88
2022/10/25 06:09:44;;;;;;;18.35;13.60;;;13.10;99.90;;;;;;4919181;29;20115;-89
2022/10/25 06:12:09;;;;;;;19.05;13.32;;;13.10;99.90;;;;;;4931685;29;20107;-88
2022/10/25 06:14:35;;;;;;;26.02;13.48;;;13.10;99.90;;;;;;4920848;29;20036;-88
2022/10/25 06:17:00;;;;;;;23.38;13.25;;;13.10;99.90;;;;;;4913476;29;20047;-88
2022/10/25 06:19:26;;;;;;;20.70;12.80;;;13.10;99.90;;;;;;4926053;29;20039;-88
2022/10/25 06:21:55;;;;;;;21.42;13.10;;;13.10;99.90;;;;;;4914842;29;20044;-87
2022/10/25 06:24:21;;;;;;;21.73;12.55;;;13.10;99.90;;;;;;4909721;29;20044;-87
2022/10/25 06:26:47;;;;;;;22.17;12.93;;;13.20;99.90;;;;;;4917332;29;20043;-89
2022/10/25 06:29:12;;;;;;;20.73;12.27;;;13.20;99.90;;;;;;4945295;28;20028;-87
2022/10/25 06:31:38;;;;;;;20.58;12.63;;;13.10;99.90;;;;;;4920191;29;20129;-87
2022/10/25 06:34:03;;;;;;;21.38;12.13;;;13.20;99.90;;;;;;4885041;29;20096;-88
2022/10/25 06:36:30;;;;;;;21.75;12.52;;;13.20;99.90;;;;;;4900661;29;20055;-88
2022/10/25 06:38:56;;;;;;;22.15;12.18;;;13.20;99.90;;;;;;4913660;29;20559;-89
2022/10/25 06:41:27;;;;;;;25.80;13.32;;;13.20;99.90;;;;;;4898425;29;20119;-90
2022/10/25 06:43:53;;;;;;;22.50;12.13;;;13.20;99.90;;;;;;4923568;29;20044;-90
2022/10/25 06:46:23;;;;;;;24.20;12.77;;;13.20;99.90;;;;;;4906143;29;20389;-89
2022/10/25 06:48:50;;;;;;;25.75;12.45;;;13.20;99.90;;;;;;4906349;29;20094;-89
2022/10/25 06:51:16;;;;;;;19.05;12.90;;;13.20;99.90;;;;;;4934504;29;20047;-89
2022/10/25 06:53:42;;;;;;;24.45;12.68;;;13.30;99.90;;;;;;4923808;29;20032;-89
2022/10/25 06:56:10;;;;;;;23.98;12.55;;;13.30;99.90;;;;;;4897655;29;20036;-88
2022/10/25 06:58:36;;;;;;;25.92;13.13;;;13.20;99.90;;;;;;4918995;29;20097;-88
2022/10/25 07:01:04;;;;;;;22.90;12.10;;;13.20;99.90;;;;;;4917576;29;20088;-88
2022/10/25 07:03:34;;;;;;;24.08;12.85;;;13.30;99.90;;;;;;4901355;29;20048;-88
2022/10/25 07:06:11;;;;;;;20.88;11.98;;;13.30;99.90;;;;;;4914494;29;20099;-87
2022/10/25 07:08:38;;;;;;;23.05;13.95;;;13.30;99.90;;;;;;4905082;29;20044;-88
2022/10/25 07:11:04;;;;;;;22.58;12.77;;;13.30;99.90;;;;;;4905594;29;20075;-88
2022/10/25 07:13:32;;;;;;;24.80;13.00;;;13.30;99.90;;;;;;4900074;29;20072;-88
2022/10/25 07:16:06;;;;;;;21.67;12.70;;;13.40;99.90;;;;;;4898898;29;20048;-89
2022/10/25 07:18:32;;;;;;;23.52;12.98;;;13.40;99.90;;;;;;4882508;29;20079;-89
2022/10/25 07:20:59;;;;;;;21.20;12.27;;;13.50;99.90;;;;;;4891795;29;20056;-89
2022/10/25 07:23:26;;;;;;;21.60;12.32;;;13.50;99.90;;;;;;4887175;29;20070;-89
2022/10/25 07:25:51;;;;;;;23.23;13.05;;;13.50;99.90;;;;;;4916593;29;20065;-89
2022/10/25 07:28:17;;;;;;;21.77;12.32;;;13.50;99.90;;;;;;4897825;29;20040;-89
2022/10/25 07:30:44;;;;;;;26.13;14.00;;;13.60;99.90;;;;;;4897463;29;20061;-89
2022/10/25 07:33:10;;;;;;;23.02;13.43;;;13.60;99.90;;;;;;4885174;29;20122;-90
2022/10/25 07:35:35;;;;;;;23.58;13.20;;;13.60;99.90;;;;;;4884190;29;21813;-89
2022/10/25 07:38:01;;;;;;;22.15;12.77;;;13.60;99.90;;;;;;4901982;29;20044;-89
2022/10/25 07:40:26;;;;;;;22.13;12.05;;;13.70;99.90;;;;;;4897009;29;20055;-89
2022/10/25 07:42:52;;;;;;;22.20;12.80;;;13.70;99.90;;;;;;4919861;29;20043;-88
2022/10/25 07:45:18;;;;;;;23.10;12.95;;;13.70;99.90;;;;;;4919068;29;20043;-88
2022/10/25 07:47:43;;;;;;;23.85;13.20;;;13.80;99.90;;;;;;4919825;29;20039;-88
2022/10/25 07:50:09;;;;;;;26.02;13.50;;;13.80;99.90;;;;;;4916923;29;20124;-88
2022/10/25 07:52:34;;;;;;;24.00;14.13;;;13.90;99.90;;;;;;4932969;29;20040;-88
2022/10/25 07:55:00;;;;;;;23.55;13.93;;;13.80;99.90;;;;;;4898912;29;20405;-90
2022/10/25 07:57:26;;;;;;;25.38;14.40;;;13.80;99.90;;;;;;4899708;29;20067;-89
2022/10/25 07:59:51;;;;;;;24.83;14.38;;;13.80;99.90;;;;;;4883551;29;20529;-87
2022/10/25 08:02:17;;;;;;;24.42;15.32;;;13.90;99.90;;;;;;4923592;29;20044;-89
2022/10/25 08:04:43;;;;;;;25.58;14.02;;;13.90;99.90;;;;;;4926582;29;20087;-89
2022/10/25 08:07:08;;;;;;;28.48;14.40;;;13.90;99.90;;;;;;4910616;29;20481;-90
2022/10/25 08:09:34;;;;;;;24.88;13.93;;;14.00;99.90;;;;;;4906105;29;20527;-89
2022/10/25 08:11:59;;;;;;;24.38;14.02;;;14.10;99.90;;;;;;4921503;29;20072;-88
2022/10/25 08:14:25;;;;;;;24.42;14.27;;;14.10;99.90;;;;;;4917178;29;20039;-88
2022/10/25 08:16:51;;;;;;;26.55;13.90;;;14.10;99.90;;;;;;4884162;29;20052;-88
2022/10/25 08:19:16;;;;;;;23.70;13.73;;;14.10;99.90;;;;;;4924137;29;20109;-88
2022/10/25 08:21:42;;;;;;;21.75;13.77;;;14.10;99.90;;;;;;4918831;29;20082;-88
2022/10/25 08:24:07;;;;;;;25.38;13.75;;;14.10;99.90;;;;;;4912749;29;20458;-88
2022/10/25 08:26:33;;;;;;;22.73;13.77;;;14.20;99.90;;;;;;4915620;29;20058;-88
2022/10/25 08:28:58;;;;;;;21.50;14.07;;;14.20;99.90;;;;;;4917835;29;20036;-88
2022/10/25 08:31:24;;;;;;;25.27;13.77;;;14.20;99.90;;;;;;4916635;29;20102;-86
2022/10/25 08:33:50;;;;;;;24.08;14.18;;;14.20;99.90;;;;;;4889910;29;20047;-88
2022/10/25 08:36:15;;;;;;;21.90;13.85;;;14.30;99.90;;;;;;4906924;29;20040;-88
2022/10/25 08:38:41;;;;;;;21.08;14.00;;;14.20;99.90;;;;;;4923853;29;20528;-88
2022/10/25 08:41:26;;;;;;;21.20;13.57;;;14.30;99.90;;;;;;4898874;29;20044;-88
2022/10/25 08:44:04;;;;;;;21.80;13.93;;;14.30;99.90;;;;;;4916514;29;20044;-88
2022/10/25 08:46:38;;;;;;;21.15;13.68;;;14.40;99.90;;;;;;4900502;29;20048;-88
2022/10/25 08:49:20;;;;;;;22.83;13.43;;;14.50;99.90;;;;;;4902769;29;20126;-88
2022/10/25 08:51:49;;;;;;;20.33;13.73;;;14.60;99.90;;;;;;4914285;29;20050;-87
2022/10/25 08:54:23;;;;;;;20.15;12.65;;;14.70;99.90;;;;;;4896242;29;20569;-89
2022/10/25 08:56:53;;;;;;;22.83;13.13;;;14.80;99.90;;;;;;4898184;29;20059;-89
2022/10/25 08:59:24;;;;;;;;;;;14.90;99.90;;;;;;4915121;29;20080;-87
2022/10/25 09:01:55;;;;;;;21.65;11.10;;;14.80;99.90;;;;;;4894375;29;19954;-88
2022/10/25 09:04:21;;;;;;;20.05;11.13;;;14.90;99.90;;;;;;4915398;29;20079;-89
2022/10/25 09:07:06;;;;;;;17.92;10.90;;;15.00;99.90;;;;;;4921709;29;20039;-87
2022/10/25 09:09:59;;;;;;;18.55;10.90;;;15.10;99.90;;;;;;4896063;29;20048;-88
2022/10/25 09:12:37;;;;;;;19.75;10.55;;;15.10;99.90;;;;;;4894823;29;20044;-89
2022/10/25 09:15:25;;;;;;;16.67;9.75;;;15.10;99.90;;;;;;4895871;29;20310;-90
2022/10/25 09:18:02;;;;;;;16.70;9.90;;;15.20;99.90;;;;;;4896131;29;20044;-89
2022/10/25 09:20:44;;;;;;;16.23;10.18;;;15.20;99.90;;;;;;4916385;29;20047;-88
2022/10/25 09:23:26;;;;;;;16.17;8.68;;;15.20;99.90;;;;;;4930987;29;20048;-88
2022/10/25 09:26:07;;;;;;;15.23;9.05;;;15.20;99.90;;;;;;4907217;29;20067;-89
2022/10/25 09:28:51;;;;;;;16.60;8.20;;;15.30;99.90;;;;;;4897327;29;20048;-89
2022/10/25 09:31:23;;;;;;;17.67;8.65;;;15.30;99.90;;;;;;4898474;29;20107;-89
2022/10/25 09:33:52;;;;;;;15.48;7.88;;;15.30;99.90;;;;;;4921326;29;20070;-91
2022/10/25 09:36:18;;;;;;;16.58;7.10;;;15.30;99.90;;;;;;4917133;29;20477;-87
2022/10/25 09:38:52;;;;;;;15.50;7.40;;;15.30;99.90;;;;;;4898483;29;20092;-89
2022/10/25 09:41:36;;;;;;;15.45;7.32;;;15.40;99.90;;;;;;4894734;29;20052;-87
2022/10/25 09:44:25;;;;;;;16.63;7.20;;;15.40;99.90;;;;;;4896245;29;20052;-87
2022/10/25 09:46:59;;;;;;;14.77;7.00;;;15.30;99.90;;;;;;4912800;29;20044;-88
2022/10/25 09:49:39;;;;;;;13.18;6.90;;;15.30;99.90;;;;;;4894728;29;20052;-88
2022/10/25 09:52:28;;;;;;;15.40;6.97;;;15.30;99.90;;;;;;4888889;29;20083;-88
2022/10/25 09:55:15;;;;;;;17.88;6.97;;;15.30;99.90;;;;;;4894601;29;20107;-88
2022/10/25 09:57:41;;;;;;;15.43;6.60;;;15.30;99.90;;;;;;4879852;29;20116;-89
2022/10/25 10:00:12;;;;;;;17.92;6.97;;;15.30;99.90;;;;;;4879395;29;20045;-88
2022/10/25 10:02:38;;;;;;;14.43;6.30;;;15.30;99.90;;;;;;4910600;29;20068;-87
2022/10/25 10:05:04;;;;;;;13.55;6.20;;;15.40;99.90;;;;;;4916218;29;20058;-89
2022/10/25 10:07:34;;;;;;;14.55;5.90;;;15.40;99.90;;;;;;4897913;29;20057;-90
2022/10/25 10:10:06;;;;;;;13.05;5.07;;;15.50;99.90;;;;;;4921151;29;20044;-89
2022/10/25 10:12:53;;;;;;;12.95;5.10;;;15.60;99.90;;;;;;4913541;29;20086;-87
2022/10/25 10:15:24;;;;;;;13.38;5.68;;;15.70;99.90;;;;;;4910613;29;20547;-88
2022/10/25 10:18:25;;;;;;;14.30;5.80;;;15.70;99.90;;;;;;4900262;29;20059;-87
2022/10/25 10:21:09;;;;;;;13.68;5.88;;;15.80;99.90;;;;;;4902823;29;20048;-89
2022/10/25 10:23:42;;;;;;;14.55;5.55;;;15.90;99.90;;;;;;4904896;29;20489;-89
2022/10/25 10:26:20;;;;;;;14.88;5.88;;;15.90;99.90;;;;;;4909006;29;20047;-88
2022/10/25 10:28:49;;;;;;;12.13;5.47;;;15.90;99.90;;;;;;4920907;29;20053;-88
2022/10/25 10:31:16;;;;;;;11.95;6.07;;;16.00;99.90;;;;;;4904440;29;20058;-91
2022/10/25 10:33:50;;;;;;;13.77;5.78;;;16.00;99.90;;;;;;4919019;29;20059;-90
2022/10/25 10:36:20;;;;;;;13.43;6.20;;;16.00;99.90;;;;;;4903806;29;20044;-89
2022/10/25 10:38:46;;;;;;;15.50;5.67;;;16.00;99.90;;;;;;4919533;29;20082;-87
2022/10/25 10:41:23;;;;;;;13.05;5.38;;;16.00;99.90;;;;;;4933619;29;20048;-89
2022/10/25 10:43:48;;;;;;;13.10;5.22;;;15.90;99.90;;;;;;4909907;29;20036;-89
2022/10/25 10:46:16;;;;;;;15.40;6.22;;;15.90;99.90;;;;;;4927494;29;20557;-91
2022/10/25 10:48:43;;;;;;;14.20;5.63;;;15.90;99.90;;;;;;4937817;29;20059;-88
2022/10/25 10:51:17;;;;;;;14.55;5.45;;;15.90;99.90;;;;;;4921207;29;20055;-87
2022/10/25 10:53:43;;;;;;;13.55;5.43;;;15.90;99.90;;;;;;4917766;29;20047;-89
2022/10/25 10:56:17;;;;;;;13.90;5.30;;;15.90;99.90;;;;;;4935692;29;20053;-90
2022/10/25 10:58:48;;;;;;;11.10;5.13;;;15.90;99.90;;;;;;4910566;29;20048;-89
2022/10/25 11:01:27;;;;;;;10.45;4.78;;;15.90;99.90;;;;;;4938289;29;20127;-88
2022/10/25 11:03:57;;;;;;;13.52;5.43;;;15.80;99.90;;;;;;4902686;29;20138;-88
2022/10/25 11:06:28;;;;;;;12.65;5.60;;;15.90;99.90;;;;;;4909917;29;20432;-90
2022/10/25 11:09:23;;;;;;;;;;;15.90;99.90;;;;;;4903646;29;20040;-90
2022/10/25 11:12:11;;;;;;;12.95;5.18;;;15.80;99.90;;;;;;4902049;29;19919;-90
2022/10/25 11:14:37;;;;;;;12.82;4.88;;;15.90;99.90;;;;;;4901565;29;20043;-90
2022/10/25 11:17:06;;;;;;;13.07;5.00;;;16.00;99.90;;;;;;4901683;29;20047;-91
2022/10/25 11:20:17;;;;;;;11.30;5.10;;;16.10;99.90;;;;;;4901053;29;20048;-91
2022/10/25 11:22:48;;;;;;;12.38;5.55;;;16.10;99.90;;;;;;4883202;29;20131;-89
2022/10/25 11:25:46;;;;;;;11.57;5.35;;;16.10;99.90;;;;;;4919274;29;20056;-90
2022/10/25 11:28:40;;;;;;;12.88;4.88;;;16.20;99.90;;;;;;4935916;29;20405;-90
2022/10/25 11:31:44;;;;;;;10.23;4.85;;;16.20;99.90;;;;;;4920077;29;20485;-90
2022/10/25 11:34:52;;;;;;;10.73;4.38;;;16.20;99.90;;;;;;4826054;29;20178;-91
2022/10/25 11:37:28;;;;;;;10.70;4.07;;;16.20;99.90;;;;;;4814338;29;20139;-91
2022/10/25 11:40:00;;;;;;;13.05;4.20;;;16.30;99.90;;;;;;4803090;29;20077;-91
2022/10/25 11:42:51;;;;;;;11.88;4.22;;;16.50;99.90;;;;;;4802231;29;20050;-92
2022/10/25 11:45:52;;;;;;;9.55;3.90;;;16.70;99.90;;;;;;4822232;29;20065;-93
2022/10/25 11:48:22;;;;;;;11.48;4.10;;;16.80;99.90;;;;;;4808100;29;20051;-92
2022/10/25 11:51:09;;;;;;;9.15;3.80;;;16.90;99.90;;;;;;4825698;29;20101;-91
2022/10/25 11:54:00;;;;;;;10.40;3.53;;;17.00;99.90;;;;;;4823187;29;20125;-95
2022/10/25 11:56:32;;;;;;;;;;;17.00;99.90;;;;;;4822899;29;20058;-92
2022/10/25 11:59:07;;;;;;;10.15;3.88;;;16.80;99.90;;;;;;4796274;29;19996;-90
2022/10/25 12:01:40;;;;;;;10.77;4.40;;;16.80;99.90;;;;;;4818348;29;20187;-90
2022/10/25 12:04:25;;;;;;;10.60;4.65;;;16.60;99.90;;;;;;4830519;29;20077;-89
2022/10/25 12:06:59;;;;;;;10.93;4.85;;;16.70;99.90;;;;;;4899328;29;20406;-91
2022/10/25 12:10:10;;;;;;;12.68;3.92;;;16.70;99.90;;;;;;4896825;29;20055;-89
2022/10/25 12:12:50;;;;;;;10.05;3.58;;;16.80;99.90;;;;;;4884214;29;20058;-89
2022/10/25 12:15:22;;;;;;;8.75;3.55;;;16.80;99.90;;;;;;4916437;29;20048;-90
2022/10/25 12:17:48;;;;;;;8.05;3.00;;;16.90;99.90;;;;;;4900056;29;20044;-90
2022/10/25 12:20:25;;;;;;;9.02;3.50;;;16.90;99.90;;;;;;4881998;29;20066;-89
2022/10/25 12:22:54;;;;;;;10.63;3.78;;;16.90;99.90;;;;;;4910419;29;20067;-89
2022/10/25 12:25:25;;;;;;;9.38;3.50;;;16.90;99.90;;;;;;4898055;29;20040;-89
2022/10/25 12:28:39;;;;;;;9.45;2.92;;;16.90;99.90;;;;;;4898339;29;20048;-88
2022/10/25 12:31:24;;;;;;;8.23;3.00;;;16.90;99.90;;;;;;4899258;29;20500;-88
2022/10/25 12:34:19;;;;;;;10.07;3.70;;;16.80;99.90;;;;;;4898324;29;20050;-94
2022/10/25 12:37:25;;;;;;;8.75;3.30;;;16.80;99.90;;;;;;4848677;29;20054;-93
2022/10/25 12:39:51;;;;;;;8.38;3.30;;;16.70;99.90;;;;;;4848648;29;20084;-94
2022/10/25 12:42:21;;;;;;;12.10;3.30;;;16.70;99.90;;;;;;4825853;29;20114;-93
2022/10/25 12:45:13;;;;;;;8.43;3.20;;;16.70;99.90;;;;;;4841009;29;20053;-94
2022/10/25 12:47:44;;;;;;;9.02;3.00;;;16.80;99.90;;;;;;4823986;29;20054;-93
2022/10/25 12:50:29;;;;;;;10.57;3.03;;;16.80;99.90;;;;;;4841559;29;20053;-95
2022/10/25 12:53:36;;;;;;;8.25;2.95;;;16.80;99.90;;;;;;4838183;29;20045;-93